Flight Track Log - Related Links

Times and Time Zones

All times are in EST time to prevent confusion due to time zone crossing. See the N146RF flight status page for this flight to view local times or setup timezone preferences in your user account.

Time Position Orientation Groundspeed Altitude Reporting Facility
EST Latitude Longitude Course Direction KTS MPH feet Rate Location/Type
Tue 09:28:16 PM 27.9167 -82.6833 319° Northwest 88 101 400  Level Tampa TRACON
Tue 09:28:34 PM 27.9333 -82.7000 319° Northwest 95 109 700 1,000 Climbing Tampa TRACON
Tue 09:29:34 PM 27.9500 -82.7000 360° North 106 122 1,700 900 Climbing Tampa TRACON
Tue 09:30:34 PM 27.9500 -82.7167 270° West 128 147 2,500 810 Climbing Tampa TRACON
Tue 09:31:40 PM 27.9167 -82.7167 180° South 134 154 3,400 762 Climbing Tampa TRACON
Tue 09:32:40 PM 27.8833 -82.7000 156° South 148 170 4,100 750 Climbing Tampa TRACON
Tue 09:33:40 PM 27.8333 -82.6833 164° South 148 170 4,900 850 Climbing Tampa TRACON
Tue 09:34:40 PM 27.8167 -82.6333 111° Southeast 161 185 5,800 900 Climbing Tampa TRACON
Tue 09:35:40 PM 27.8000 -82.6000 119° Southeast 152 175 6,700 857 Climbing Tampa TRACON
Tue 09:36:46 PM 27.7833 -82.5500 111° Southeast 155 178 7,600 850 Climbing Tampa TRACON
Tue 09:37:47 PM 27.7667 -82.5000 111° Southeast 154 177 8,500 835 Climbing Tampa TRACON
Tue 09:38:41 PM 27.7500 -82.4667 119° Southeast 158 182 9,200 738 Climbing Tampa TRACON
Tue 09:40:54 PM 27.7092 -82.3564 113° Southeast 187 215 10,800 560 Climbing Miami Center
Tue 09:41:54 PM 27.6864 -82.3039 116° Southeast 187 215 11,000 100 Climbing Miami Center
Tue 09:42:54 PM 27.6614 -82.2417 114° Southeast 203 234 11,000  Level Miami Center
Tue 09:43:54 PM 27.6367 -82.1797 114° Southeast 209 241 11,000  Level Miami Center
Tue 09:44:54 PM 27.6136 -82.1269 116° Southeast 209 241 11,000  Level Miami Center
Tue 09:45:54 PM 27.5883 -82.0719 117° Southeast 204 235 11,000  Level Miami Center
Tue 09:46:54 PM 27.5614 -82.0122 117° Southeast 199 229 11,000  Level Miami Center
Tue 09:47:54 PM 27.5339 -81.9642 123° Southeast 205 236 11,000  Level Miami Center
Tue 09:48:54 PM 27.5022 -81.9114 124° Southeast 205 236 11,000  Level Miami Center
Tue 09:49:54 PM 27.4708 -81.8583 124° Southeast 200 230 11,000  Level Miami Center
Tue 09:50:54 PM 27.4414 -81.8058 122° Southeast 200 230 11,000  Level Miami Center
Tue 09:51:54 PM 27.4117 -81.7531 122° Southeast 200 230 11,000  Level Miami Center
Tue 09:52:54 PM 27.3800 -81.7025 125° Southeast 200 230 11,000  Level Miami Center
Tue 09:53:54 PM 27.3506 -81.6500 122° Southeast 200 230 11,000  Level Miami Center
Tue 09:54:55 PM 27.3211 -81.5950 121° Southeast 200 230 11,000  Level Miami Center
Tue 09:55:54 PM 27.2892 -81.5447 126° Southeast 200 230 11,000  Level Miami Center
Tue 09:56:56 PM 27.2575 -81.4919 124° Southeast 200 230 11,000  Level Miami Center
Tue 09:57:54 PM 27.2239 -81.4392 126° Southeast 200 230 11,000  Level Miami Center
Tue 09:58:54 PM 27.1942 -81.3844 121° Southeast 200 230 11,000 -99 Level Miami Center
Tue 09:59:55 PM 27.1606 -81.3247 122° Southeast 200 230 10,800 -347 Descending Miami Center
Tue 10:00:55 PM 27.1289 -81.2675 122° Southeast 205 236 10,300 -454 Descending Miami Center
Tue 10:01:54 PM 27.0950 -81.2125 125° Southeast 210 242 9,900 -450 Descending Miami Center
Tue 10:02:55 PM 27.0633 -81.1600 124° Southeast 216 249 9,400 -500 Descending Miami Center
Tue 10:03:54 PM 27.0253 -81.1028 127° Southeast 216 249 8,900 -500 Descending Miami Center
Tue 10:04:55 PM 26.9956 -81.0458 120° Southeast 216 249 8,400 -488 Descending Miami Center
Tue 10:05:57 PM 26.9617 -80.9908 125° Southeast 216 249 7,900 -504 Descending Miami Center
Tue 10:06:54 PM 26.9319 -80.9386 123° Southeast 216 249 7,400 -462 Descending Miami Center
Tue 10:07:54 PM 26.9039 -80.8911 124° Southeast 210 242 7,000 -198 Descending Miami Center
Tue 10:08:55 PM 26.8700 -80.8364 125° Southeast 205 236 7,000  Level Miami Center
Tue 10:09:55 PM 26.8419 -80.7889 123° Southeast 194 223 7,000  Level Miami Center
Tue 10:10:56 PM 26.8119 -80.7414 125° Southeast 189 217 7,000 -246 Level Miami Center
Tue 10:11:57 PM 26.7861 -80.6939 121° Southeast 189 217 6,500 -508 Descending Miami Center
Tue 10:12:54 PM 26.7539 -80.6417 125° Southeast 201 231 6,000 -500 Descending Miami Center
Tue 10:13:57 PM 26.7219 -80.5847 122° Southeast 201 231 5,500 -450 Descending Miami Center
Tue 10:14:54 PM 26.6942 -80.5375 123° Southeast 201 231 5,100 -400 Descending Miami Center
Tue 10:15:57 PM 26.6661 -80.4831 120° Southeast 193 222 4,700 -393 Descending Miami Center
Tue 10:16:56 PM 26.6400 -80.4381 123° Southeast 188 216 4,300 -407 Descending Miami Center
Tue 10:18:00 PM 26.6446 -80.3829 85° East  Level FlightAware Approximate
Tue 10:25:00 PM 26.5833 -80.0833 114° Southeast  Level FlightAware Approximate
Tue 10:26:00 PM 26.5931 -80.0851 114° Southeast  Level Estimated
Tue 10:27:00 PM 26.5931 -80.0851 114° Southeast  Level Estimated
Tue 10:28:00 PM 26.5931 -80.0851 114° Southeast  Level Estimated
Tue 10:29:00 PM 26.5931 -80.0851 114° Southeast  Level Estimated
Tue 10:30:00 PM 26.5931 -80.0851 114° Southeast  Level Estimated
Tue 10:31:00 PM 26.5931 -80.0851 114° Southeast  Level Estimated
Tue 10:32:00 PM 26.5931 -80.0851 114° Southeast  Level Estimated

Login

Don't have an account? Register now (free) for customized features, flight alerts, and more!